Time;durP1;ratioP1;P1;durP2;ratioP2;P2;SDS_P1;SDS_P2;PMS_P1;PMS_P2;Temp;Humidity;BMP_temperature;BMP_pressure;BME280_temperature;BME280_humidity;BME280_pressure;Samples;Min_cycle;Max_cycle;Signal;HPM_P1;HPM_P2
2022/05/24 00:00:34;;;;;;;;;;;;;;;19.13;64.87;99771.28;1056688;28;653;-68
2022/05/24 00:01:24;;;;;;;;;;;;;;;19.13;65.11;99774.00;1056225;28;633;-68
2022/05/24 00:02:15;;;;;;;;;;;;;;;19.14;65.04;99775.69;1056956;28;672;-68
2022/05/24 00:03:05;;;;;;;;;;;;;;;19.13;65.01;99768.59;1056855;28;630;-68
2022/05/24 00:03:56;;;;;;;;;;;;;;;19.12;65.76;99772.31;1056346;28;660;-68
2022/05/24 00:04:47;;;;;;;;;;;;;;;19.12;65.12;99772.31;1056401;28;676;-67
2022/05/24 00:05:37;;;;;;;;;;;;;;;19.11;64.96;99765.22;1055928;28;1890;-67
2022/05/24 00:06:28;;;;;;;;;;;;;;;19.10;66.06;99774.34;1056236;28;649;-67
2022/05/24 00:07:18;;;;;;;;;;;;;;;19.11;64.97;99770.63;1056482;28;622;-68
2022/05/24 00:08:08;;;;;;;;;;;;;;;19.11;65.49;99773.31;1056263;28;645;-68
2022/05/24 00:08:59;;;;;;;;;;;;;;;19.09;65.80;99768.09;1055737;28;614;-67
2022/05/24 00:09:49;;;;;;;;;;;;;;;19.10;64.89;99766.25;1056413;28;608;-67
2022/05/24 00:10:40;;;;;;;;;;;;;;;19.10;65.00;99774.34;1056246;28;667;-69
2022/05/24 00:11:30;;;;;;;;;;;;;;;19.10;65.27;99774.34;1056449;28;637;-69
2022/05/24 00:12:21;;;;;;;;;;;;;;;19.11;65.35;99776.88;1056779;28;661;-68
2022/05/24 00:13:11;;;;;;;;;;;;;;;19.10;65.95;99775.19;1056298;28;672;-68
2022/05/24 00:14:02;;;;;;;;;;;;;;;19.10;65.49;99771.66;1060227;27;637;-68
2022/05/24 00:16:01;;;;;;;;;;;;;;;19.08;64.96;99772.66;1057578;28;649;-67
2022/05/24 00:16:52;;;;;;;;;;;;;;;19.08;65.99;99775.38;1056262;28;641;-67
2022/05/24 00:17:42;;;;;;;;;;;;;;;19.08;65.33;99772.66;1056359;28;681;-67
2022/05/24 00:18:33;;;;;;;;;;;;;;;19.10;64.55;99774.34;1056108;28;654;-68
2022/05/24 00:19:23;;;;;;;;;;;;;;;19.08;64.50;99766.44;1057528;28;671;-67
2022/05/24 00:20:13;;;;;;;;;;;;;;;19.07;65.02;99765.59;1056124;28;637;-67
2022/05/24 00:21:04;;;;;;;;;;;;;;;19.06;65.47;99763.91;1056190;28;643;-67
2022/05/24 00:21:54;;;;;;;;;;;;;;;19.07;65.13;99768.28;1056417;28;650;-67
2022/05/24 00:22:45;;;;;;;;;;;;;;;19.07;65.23;99768.28;1056695;28;1658;-67
2022/05/24 00:23:35;;;;;;;;;;;;;;;19.06;64.64;99760.34;1051105;28;770;-68
2022/05/24 00:24:25;;;;;;;;;;;;;;;19.08;65.06;99766.44;1051820;28;684;-67
2022/05/24 00:25:16;;;;;;;;;;;;;;;19.08;65.18;99763.72;1051981;28;2068;-67
2022/05/24 00:26:07;;;;;;;;;;;;;;;19.08;65.40;99764.56;1052212;28;643;-68
2022/05/24 00:26:58;;;;;;;;;;;;;;;19.07;65.52;99765.59;1056648;28;657;-67
2022/05/24 00:27:48;;;;;;;;;;;;;;;19.07;65.30;99768.28;1057250;28;634;-67
2022/05/24 00:28:39;;;;;;;;;;;;;;;19.06;65.52;99763.91;1052704;28;713;-67
2022/05/24 00:29:29;;;;;;;;;;;;;;;19.05;65.52;99754.13;1052104;28;681;-67
2022/05/24 00:30:19;;;;;;;;;;;;;;;19.05;65.62;99750.56;1056222;28;708;-68
2022/05/24 00:31:10;;;;;;;;;;;;;;;19.05;65.08;99756.81;1057119;28;1649;-67
2022/05/24 00:32:00;;;;;;;;;;;;;;;19.05;65.31;99759.53;1052898;28;629;-68
2022/05/24 00:32:51;;;;;;;;;;;;;;;19.04;66.02;99762.41;1051945;28;634;-67
2022/05/24 00:33:41;;;;;;;;;;;;;;;19.04;65.32;99759.69;1052208;28;717;-67
2022/05/24 00:34:31;;;;;;;;;;;;;;;19.04;65.47;99760.53;1051844;28;622;-69
2022/05/24 00:35:22;;;;;;;;;;;;;;;19.07;64.91;99765.59;1051969;28;696;-67
2022/05/24 00:36:12;;;;;;;;;;;;;;;19.04;65.43;99763.25;1052128;28;778;-67
2022/05/24 00:37:03;;;;;;;;;;;;;;;19.03;65.03;99755.31;1052019;28;658;-66
2022/05/24 00:37:53;;;;;;;;;;;;;;;19.03;65.47;99755.31;1052721;28;641;-66
2022/05/24 00:38:44;;;;;;;;;;;;;;;19.02;65.65;99765.28;1051974;28;642;-66
2022/05/24 00:39:34;;;;;;;;;;;;;;;19.03;65.33;99764.25;1052233;28;673;-66
2022/05/24 00:40:25;;;;;;;;;;;;;;;19.02;65.04;99759.88;1052085;28;1709;-67
2022/05/24 00:41:16;;;;;;;;;;;;;;;19.02;65.24;99765.28;1052287;28;650;-65
2022/05/24 00:42:07;;;;;;;;;;;;;;;19.03;65.17;99758.00;1052052;28;715;-66
2022/05/24 00:42:57;;;;;;;;;;;;;;;19.02;65.50;99756.34;1052357;28;739;-67
2022/05/24 00:43:48;;;;;;;;;;;;;;;19.03;65.01;99758.84;1052015;28;697;-67
2022/05/24 00:44:38;;;;;;;;;;;;;;;19.02;65.48;99762.56;1051912;28;1249;-66
2022/05/24 00:45:29;;;;;;;;;;;;;;;19.02;64.78;99762.56;1051217;28;1894;-66
2022/05/24 00:46:19;;;;;;;;;;;;;;;19.02;65.54;99759.88;1051978;28;638;-67
2022/05/24 00:47:09;;;;;;;;;;;;;;;19.01;65.15;99755.50;1051107;28;594;-67
2022/05/24 00:48:00;;;;;;;;;;;;;;;19.02;65.37;99762.56;1052025;28;645;-67
2022/05/24 00:48:50;;;;;;;;;;;;;;;19.01;65.49;99755.50;1059287;27;1199;-67
2022/05/24 00:49:41;;;;;;;;;;;;;;;19.01;64.86;99763.59;1061517;27;665;-66
2022/05/24 00:50:31;;;;;;;;;;;;;;;19.00;65.22;99759.22;1061379;27;707;-66
2022/05/24 00:51:21;;;;;;;;;;;;;;;19.00;65.37;99753.81;1059623;27;672;-66
2022/05/24 00:52:12;;;;;;;;;;;;;;;19.02;65.52;99756.34;1059414;27;645;-67
2022/05/24 00:53:02;;;;;;;;;;;;;;;19.00;64.94;99764.63;1060118;27;720;-67
2022/05/24 00:53:53;;;;;;;;;;;;;;;19.01;64.96;99760.06;1059734;27;654;-67
2022/05/24 00:54:44;;;;;;;;;;;;;;;19.01;64.93;99766.28;1059974;27;686;-66
2022/05/24 00:55:34;;;;;;;;;;;;;;;19.00;65.39;99770.00;1061068;27;641;-67
2022/05/24 00:56:24;;;;;;;;;;;;;;;19.00;64.77;99761.91;1059472;27;645;-66
2022/05/24 00:57:17;;;;;;;;;;;;;;;19.00;65.51;99764.63;1059739;27;708;-66
2022/05/24 00:58:08;;;;;;;;;;;;;;;19.00;64.69;99763.78;1058311;27;1677;-67
2022/05/24 00:58:58;;;;;;;;;;;;;;;18.99;65.29;99762.94;1060103;27;648;-67
2022/05/24 00:59:49;;;;;;;;;;;;;;;18.99;65.34;99760.22;1060563;27;816;-67
2022/05/24 01:00:39;;;;;;;;;;;;;;;18.99;65.72;99760.22;1056955;28;794;-70
2022/05/24 01:01:30;;;;;;;;;;;;;;;19.01;65.39;99763.59;1057145;28;687;-70
2022/05/24 01:02:21;;;;;;;;;;;;;;;19.00;65.03;99753.81;1056508;28;650;-68
2022/05/24 01:03:11;;;;;;;;;;;;;;;18.99;65.51;99752.13;1057093;28;693;-68
2022/05/24 01:04:01;;;;;;;;;;;;;;;18.98;65.38;99753.19;1056024;28;654;-67
2022/05/24 01:04:52;;;;;;;;;;;;;;;18.99;65.71;99756.69;1055924;28;685;-66
2022/05/24 01:05:43;;;;;;;;;;;;;;;19.00;65.49;99756.50;1056178;28;1889;-67
2022/05/24 01:06:33;;;;;;;;;;;;;;;18.98;65.06;99753.19;1056328;28;720;-67
2022/05/24 01:07:23;;;;;;;;;;;;;;;18.99;64.56;99754.84;1055751;28;669;-66
2022/05/24 01:08:14;;;;;;;;;;;;;;;18.99;64.57;99749.44;1061262;27;692;-68
2022/05/24 01:09:04;;;;;;;;;;;;;;;18.98;65.38;99753.19;1060882;27;633;-66
2022/05/24 01:09:55;;;;;;;;;;;;;;;18.98;65.39;99749.63;1056854;28;677;-67
2022/05/24 01:10:45;;;;;;;;;;;;;;;18.98;65.05;99750.47;1056014;28;618;-68
2022/05/24 01:11:36;;;;;;;;;;;;;;;18.98;65.12;99749.63;1057633;28;795;-65
2022/05/24 01:12:26;;;;;;;;;;;;;;;18.97;65.15;99740.69;1056314;28;704;-65
2022/05/24 01:13:17;;;;;;;;;;;;;;;18.98;64.45;99738.84;1055382;28;633;-65
2022/05/24 01:14:07;;;;;;;;;;;;;;;18.97;65.39;99746.09;1056161;28;665;-65
2022/05/24 01:14:58;;;;;;;;;;;;;;;18.99;65.00;99743.19;1056039;28;626;-66
2022/05/24 01:15:50;;;;;;;;;;;;;;;18.97;65.11;99742.56;1056203;28;734;-66
2022/05/24 01:16:40;;;;;;;;;;;;;;;18.97;65.41;99747.97;1051761;28;695;-67
2022/05/24 01:17:30;;;;;;;;;;;;;;;18.96;65.55;99741.72;1051780;28;673;-68
2022/05/24 01:18:21;;;;;;;;;;;;;;;18.97;64.48;99738.00;1051745;28;641;-67
2022/05/24 01:19:12;;;;;;;;;;;;;;;18.96;65.11;99741.72;1051346;28;689;-66
2022/05/24 01:20:02;;;;;;;;;;;;;;;18.97;65.40;99745.25;1051772;28;646;-67
2022/05/24 01:20:52;;;;;;;;;;;;;;;18.97;65.33;99750.66;1051564;28;669;-67
2022/05/24 01:21:43;;;;;;;;;;;;;;;18.96;65.42;99746.28;1051763;28;709;-66
2022/05/24 01:22:33;;;;;;;;;;;;;;;18.96;64.79;99744.41;1051890;28;626;-66
2022/05/24 01:23:24;;;;;;;;;;;;;;;18.96;65.05;99747.13;1052474;28;637;-68
2022/05/24 01:24:14;;;;;;;;;;;;;;;18.94;65.10;99743.75;1051966;28;836;-67
2022/05/24 01:25:05;;;;;;;;;;;;;;;18.94;65.47;99741.06;1051702;28;611;-67
2022/05/24 01:25:56;;;;;;;;;;;;;;;18.95;64.99;99740.03;1051689;28;693;-66
2022/05/24 01:26:47;;;;;;;;;;;;;;;18.94;65.37;99743.75;1051863;28;881;-68
2022/05/24 01:27:37;;;;;;;;;;;;;;;18.93;65.02;99736.69;1051364;28;686;-68
2022/05/24 01:28:27;;;;;;;;;;;;;;;18.94;65.35;99732.97;1052010;28;708;-68
2022/05/24 01:29:18;;;;;;;;;;;;;;;18.93;64.46;99736.69;1051807;28;641;-68
2022/05/24 01:30:08;;;;;;;;;;;;;;;18.94;64.79;99738.34;1051914;28;685;-68
2022/05/24 01:30:59;;;;;;;;;;;;;;;18.94;65.29;99737.50;1051660;28;654;-67
2022/05/24 01:36:25;;;;;;;;;;;;;;;18.93;65.24;99731.28;1057114;28;719;-66
2022/05/24 01:37:16;;;;;;;;;;;;;;;18.94;64.48;99737.50;1056008;28;685;-67
2022/05/24 01:38:06;;;;;;;;;;;;;;;18.92;65.66;99743.09;1055915;28;670;-67
2022/05/24 01:38:57;;;;;;;;;;;;;;;18.92;65.44;99740.38;1061090;27;650;-67
2022/05/24 01:39:47;;;;;;;;;;;;;;;18.91;65.53;99746.81;1060742;28;676;-67
2022/05/24 01:40:38;;;;;;;;;;;;;;;18.91;65.48;99744.09;1056502;28;632;-67
2022/05/24 01:41:28;;;;;;;;;;;;;;;18.91;65.06;99751.38;1056772;28;696;-68
2022/05/24 01:42:19;;;;;;;;;;;;;;;18.90;65.20;99750.53;1055939;28;645;-67
2022/05/24 01:43:09;;;;;;;;;;;;;;;18.91;65.39;99754.06;1055941;28;602;-68
2022/05/24 01:43:59;;;;;;;;;;;;;;;18.91;65.67;99756.78;1055862;28;653;-68
2022/05/24 01:44:50;;;;;;;;;;;;;;;18.90;65.06;99753.22;1061023;28;716;-67
2022/05/24 01:45:40;;;;;;;;;;;;;;;18.90;65.32;99764.03;1060446;28;1909;-66
2022/05/24 01:46:31;;;;;;;;;;;;;;;18.91;65.16;99757.59;1056488;28;646;-69
2022/05/24 01:47:21;;;;;;;;;;;;;;;18.90;64.77;99764.03;1056759;28;723;-68
2022/05/24 01:48:12;;;;;;;;;;;;;;;18.89;65.41;99756.94;1056527;28;780;-68
2022/05/24 01:49:02;;;;;;;;;;;;;;;18.89;65.41;99759.66;1052788;28;700;-67
2022/05/24 01:49:52;;;;;;;;;;;;;;;18.89;65.50;99761.50;1052623;28;617;-67
2022/05/24 01:50:43;;;;;;;;;;;;;;;18.89;65.59;99754.25;1052945;28;673;-67
2022/05/24 01:51:33;;;;;;;;;;;;;;;18.89;65.39;99759.66;1053906;28;1655;-67
2022/05/24 01:52:24;;;;;;;;;;;;;;;18.89;64.98;99765.03;1056494;28;646;-66
2022/05/24 01:53:14;;;;;;;;;;;;;;;18.89;65.26;99759.66;1056011;28;657;-67
2022/05/24 01:54:04;;;;;;;;;;;;;;;18.89;65.28;99767.75;1056179;28;618;-68
2022/05/24 01:54:55;;;;;;;;;;;;;;;18.88;64.44;99762.53;1055801;28;630;-69
2022/05/24 01:55:45;;;;;;;;;;;;;;;18.89;65.56;99773.16;1056073;28;665;-67
2022/05/24 01:56:36;;;;;;;;;;;;;;;18.89;65.00;99764.19;1056223;28;740;-68
2022/05/24 01:57:26;;;;;;;;;;;;;;;18.88;65.25;99771.47;1055571;28;649;-68
2022/05/24 01:58:17;;;;;;;;;;;;;;;18.87;65.04;99764.38;1057201;28;692;-67
2022/05/24 01:59:07;;;;;;;;;;;;;;;18.88;65.63;99760.66;1057243;28;688;-67
2022/05/24 01:59:58;;;;;;;;;;;;;;;18.87;65.21;99763.53;1055856;28;780;-68
2022/05/24 02:00:48;;;;;;;;;;;;;;;18.87;64.99;99758.97;1055792;28;629;-68
2022/05/24 02:01:38;;;;;;;;;;;;;;;18.86;64.89;99762.69;1056283;28;672;-68
2022/05/24 02:02:29;;;;;;;;;;;;;;;18.87;64.54;99763.53;1056038;28;698;-66
2022/05/24 02:03:19;;;;;;;;;;;;;;;18.87;64.46;99761.69;1056029;28;649;-67
2022/05/24 02:04:10;;;;;;;;;;;;;;;18.85;64.93;99758.31;1055780;28;684;-67
2022/05/24 02:05:00;;;;;;;;;;;;;;;18.85;64.89;99762.88;1056702;28;667;-68
2022/05/24 02:05:51;;;;;;;;;;;;;;;18.86;65.41;99764.56;1055683;28;680;-68
2022/05/24 02:06:41;;;;;;;;;;;;;;;18.84;65.70;99759.34;1055813;28;637;-68
2022/05/24 02:07:33;;;;;;;;;;;;;;;18.84;65.03;99759.34;1056044;28;672;-68
2022/05/24 02:08:23;;;;;;;;;;;;;;;18.85;64.94;99765.56;1055686;28;808;-68
2022/05/24 02:09:14;;;;;;;;;;;;;;;18.84;65.27;99759.34;1055419;28;1658;-67
2022/05/24 02:10:04;;;;;;;;;;;;;;;18.84;64.87;99750.41;1051776;28;639;-66
2022/05/24 02:10:54;;;;;;;;;;;;;;;18.83;65.40;99752.25;1051993;28;681;-66
2022/05/24 02:11:45;;;;;;;;;;;;;;;18.84;65.63;99762.03;1051622;28;618;-64
2022/05/24 02:12:35;;;;;;;;;;;;;;;18.83;64.76;99765.75;1052469;28;652;-66
2022/05/24 02:13:26;;;;;;;;;;;;;;;18.84;64.96;99764.72;1056877;28;707;-69
2022/05/24 02:14:16;;;;;;;;;;;;;;;18.85;64.97;99773.66;1056494;28;661;-65
2022/05/24 02:15:06;;;;;;;;;;;;;;;18.85;65.59;99762.88;1053214;28;730;-66
2022/05/24 02:15:57;;;;;;;;;;;;;;;18.84;64.46;99755.78;1051651;28;634;-66
2022/05/24 02:16:47;;;;;;;;;;;;;;;18.83;65.23;99768.44;1051927;28;756;-66
2022/05/24 02:17:39;;;;;;;;;;;;;;;18.83;65.12;99757.66;1051756;28;1721;-67
2022/05/24 02:18:29;;;;;;;;;;;;;;;18.82;64.83;99764.06;1052503;28;657;-67
2022/05/24 02:19:19;;;;;;;;;;;;;;;18.82;64.85;99772.16;1051660;28;701;-66
2022/05/24 02:20:10;;;;;;;;;;;;;;;18.82;64.93;99766.75;1051619;28;639;-66
2022/05/24 02:21:01;;;;;;;;;;;;;;;18.82;65.83;99766.75;1056036;28;685;-66
2022/05/24 02:21:51;;;;;;;;;;;;;;;18.83;65.46;99779.25;1056774;28;684;-66
2022/05/24 02:22:42;;;;;;;;;;;;;;;18.81;65.35;99770.47;1052271;28;637;-67
2022/05/24 02:23:32;;;;;;;;;;;;;;;18.82;64.68;99774.88;1051477;28;705;-67
2022/05/24 02:24:23;;;;;;;;;;;;;;;18.81;65.43;99778.59;1051512;28;630;-66
2022/05/24 02:25:13;;;;;;;;;;;;;;;18.81;64.71;99781.28;1056264;28;680;-67
2022/05/24 02:26:03;;;;;;;;;;;;;;;18.82;65.19;99776.72;1056313;28;689;-66
2022/05/24 02:26:54;;;;;;;;;;;;;;;18.82;64.94;99782.13;1052316;28;1605;-66
2022/05/24 02:27:44;;;;;;;;;;;;;;;18.81;65.21;99780.47;1052397;28;879;-65
2022/05/24 02:28:35;;;;;;;;;;;;;;;18.81;64.49;99780.47;1052215;28;716;-66
2022/05/24 02:29:25;;;;;;;;;;;;;;;18.80;65.15;99774.22;1052365;28;626;-65
2022/05/24 02:30:15;;;;;;;;;;;;;;;18.80;64.88;99768.84;1052512;28;658;-65
2022/05/24 02:31:06;;;;;;;;;;;;;;;18.80;65.17;99776.09;1052234;28;654;-65
2022/05/24 02:31:56;;;;;;;;;;;;;;;18.80;65.11;99768.84;1052367;28;652;-66
2022/05/24 02:32:47;;;;;;;;;;;;;;;18.79;65.02;99763.59;1052595;28;677;-65
2022/05/24 02:33:37;;;;;;;;;;;;;;;18.80;65.18;99771.53;1052345;28;692;-65
2022/05/24 02:34:27;;;;;;;;;;;;;;;18.80;64.79;99762.59;1052994;28;634;-66
2022/05/24 02:35:18;;;;;;;;;;;;;;;18.79;64.97;99758.22;1052304;28;695;-68
2022/05/24 02:36:08;;;;;;;;;;;;;;;18.78;65.16;99762.78;1052290;28;717;-69
2022/05/24 02:36:59;;;;;;;;;;;;;;;18.77;64.90;99762.94;1052121;28;705;-66
2022/05/24 02:37:49;;;;;;;;;;;;;;;18.77;65.54;99757.53;1051666;28;669;-67
2022/05/24 02:38:40;;;;;;;;;;;;;;;18.78;65.30;99764.63;1052402;28;708;-66
2022/05/24 02:41:28;;;;;;;;;;;;;;;18.78;64.72;99762.78;1052319;28;712;-68
2022/05/24 02:41:50;;;;;;;;;;;;;;;18.78;64.81;99765.47;1051861;28;1449;-67
2022/05/24 02:42:40;;;;;;;;;;;;;;;18.76;64.77;99762.09;1052770;28;637;-67
2022/05/24 02:43:30;;;;;;;;;;;;;;;18.76;64.27;99756.72;1052292;28;569;-68
2022/05/24 02:44:21;;;;;;;;;;;;;;;18.75;65.03;99760.41;1052083;28;1816;-68
2022/05/24 02:45:11;;;;;;;;;;;;;;;18.75;64.55;99754.19;1053416;28;684;-68
2022/05/24 02:46:02;;;;;;;;;;;;;;;18.75;65.12;99760.41;1051863;28;724;-68
2022/05/24 02:46:52;;;;;;;;;;;;;;;18.76;64.76;99750.47;1051629;28;665;-68
2022/05/24 02:47:42;;;;;;;;;;;;;;;18.75;65.00;99751.47;1051811;28;559;-68
2022/05/24 02:48:33;;;;;;;;;;;;;;;18.75;65.43;99757.72;1053292;28;1302;-68
2022/05/24 02:49:23;;;;;;;;;;;;;;;18.75;64.47;99756.88;1059707;28;629;-68
2022/05/24 02:50:14;;;;;;;;;;;;;;;18.75;64.84;99755.03;1061255;28;703;-68
2022/05/24 02:51:04;;;;;;;;;;;;;;;18.73;64.60;99757.06;1059645;28;653;-68
2022/05/24 02:51:54;;;;;;;;;;;;;;;18.73;64.34;99755.19;1059780;28;638;-68
2022/05/24 02:52:45;;;;;;;;;;;;;;;18.75;64.77;99759.59;1059522;28;598;-68
2022/05/24 02:53:35;;;;;;;;;;;;;;;18.73;64.51;99757.06;1059685;28;736;-67
2022/05/24 02:54:26;;;;;;;;;;;;;;;18.73;64.20;99752.50;1061275;28;656;-68
2022/05/24 02:55:16;;;;;;;;;;;;;;;18.71;64.19;99751.00;1059583;28;688;-68
2022/05/24 02:56:07;;;;;;;;;;;;;;;18.72;64.54;99750.81;1061232;28;683;-67
2022/05/24 02:56:58;;;;;;;;;;;;;;;18.73;65.42;99747.09;1061260;28;703;-68
2022/05/24 02:57:49;;;;;;;;;;;;;;;18.72;64.70;99750.81;1060498;28;637;-68
2022/05/24 02:58:39;;;;;;;;;;;;;;;18.73;64.46;99754.34;1059622;28;681;-66
2022/05/24 02:59:29;;;;;;;;;;;;;;;18.71;65.16;99751.00;1059870;28;659;-67
2022/05/24 03:00:20;;;;;;;;;;;;;;;18.72;64.99;99750.81;1059484;28;626;-66
2022/05/24 03:01:11;;;;;;;;;;;;;;;18.72;65.12;99758.91;1061422;28;708;-66
2022/05/24 03:02:01;;;;;;;;;;;;;;;18.70;64.66;99749.31;1058984;28;1685;-67
2022/05/24 03:02:52;;;;;;;;;;;;;;;18.70;64.16;99754.72;1055144;28;697;-67
2022/05/24 03:03:42;;;;;;;;;;;;;;;18.71;64.70;99754.53;1055718;28;674;-67
2022/05/24 03:04:33;;;;;;;;;;;;;;;18.70;64.65;99763.66;1056464;28;724;-66
2022/05/24 03:05:23;;;;;;;;;;;;;;;18.69;64.68;99764.66;1055712;28;1971;-67
2022/05/24 03:06:14;;;;;;;;;;;;;;;18.70;64.13;99765.50;1056886;28;720;-65
2022/05/24 03:09:43;;;;;;;;;;;;;;;18.69;64.65;99769.22;1056763;28;747;-67
2022/05/24 03:10:33;;;;;;;;;;;;;;;18.69;64.59;99766.53;1056777;28;677;-66
2022/05/24 03:11:24;;;;;;;;;;;;;;;18.68;64.19;99765.69;1060462;27;653;-65
2022/05/24 03:14:32;;;;;;;;;;;;;;;18.67;64.41;99765.84;1056703;28;688;-67
2022/05/24 03:15:23;;;;;;;;;;;;;;;18.66;64.73;99756.06;1056403;28;646;-67
2022/05/24 03:16:13;;;;;;;;;;;;;;;18.66;64.22;99762.31;1056555;28;717;-67
2022/05/24 03:17:04;;;;;;;;;;;;;;;18.66;64.22;99765.00;1056613;28;774;-67
2022/05/24 03:17:54;;;;;;;;;;;;;;;18.67;65.19;99757.75;1056421;28;658;-68
2022/05/24 03:18:44;;;;;;;;;;;;;;;18.65;64.78;99754.41;1056707;28;772;-66
2022/05/24 03:19:35;;;;;;;;;;;;;;;18.66;64.49;99756.06;1056080;28;1714;-67
2022/05/24 03:20:26;;;;;;;;;;;;;;;18.66;65.08;99762.31;1052483;28;713;-67
2022/05/24 03:21:16;;;;;;;;;;;;;;;18.65;64.02;99765.19;1052479;28;745;-67
2022/05/24 03:22:09;;;;;;;;;;;;;;;18.66;65.29;99764.16;1052825;28;681;-66
2022/05/24 03:22:59;;;;;;;;;;;;;;;18.66;64.72;99766.88;1056139;28;665;-66
2022/05/24 03:23:49;;;;;;;;;;;;;;;18.65;65.10;99760.63;1056944;28;696;-66
2022/05/24 03:24:40;;;;;;;;;;;;;;;18.64;64.81;99758.09;1053805;28;709;-70
2022/05/24 03:25:32;;;;;;;;;;;;;;;18.65;64.01;99762.50;1053416;28;1870;-67
2022/05/24 03:26:22;;;;;;;;;;;;;;;18.65;64.11;99762.50;1052398;28;654;-66
2022/05/24 03:27:13;;;;;;;;;;;;;;;18.65;64.35;99773.28;1052566;28;806;-67
2022/05/24 03:28:04;;;;;;;;;;;;;;;18.65;64.33;99767.88;1052161;28;634;-67
2022/05/24 03:28:54;;;;;;;;;;;;;;;18.65;64.38;99768.72;1052177;28;709;-66
2022/05/24 03:29:45;;;;;;;;;;;;;;;18.65;64.42;99763.34;1052472;28;646;-66
2022/05/24 03:30:35;;;;;;;;;;;;;;;18.64;64.47;99768.91;1052329;28;630;-67
2022/05/24 03:31:25;;;;;;;;;;;;;;;18.63;64.80;99768.06;1052314;28;759;-68
2022/05/24 03:32:16;;;;;;;;;;;;;;;18.62;64.50;99766.41;1053366;28;821;-69
2022/05/24 03:33:07;;;;;;;;;;;;;;;18.64;64.70;99768.91;1051503;28;650;-68
2022/05/24 03:33:57;;;;;;;;;;;;;;;18.63;64.74;99769.94;1052395;28;799;-67
2022/05/24 03:34:48;;;;;;;;;;;;;;;18.63;64.79;99772.66;1052113;28;598;-67
2022/05/24 03:35:38;;;;;;;;;;;;;;;18.63;64.73;99772.66;1052341;28;630;-67
2022/05/24 03:36:29;;;;;;;;;;;;;;;18.64;64.29;99771.59;1052558;28;693;-69
2022/05/24 03:37:19;;;;;;;;;;;;;;;18.63;63.94;99776.16;1052121;28;637;-68
2022/05/24 03:38:09;;;;;;;;;;;;;;;18.62;64.35;99773.66;1052874;28;698;-70
2022/05/24 03:39:00;;;;;;;;;;;;;;;18.62;63.96;99781.75;1052195;28;709;-70
2022/05/24 03:39:50;;;;;;;;;;;;;;;18.62;64.28;99779.06;1051767;28;614;-70
2022/05/24 03:40:41;;;;;;;;;;;;;;;18.62;65.04;99781.75;1052502;28;645;-69
2022/05/24 03:41:31;;;;;;;;;;;;;;;18.62;64.80;99770.97;1052184;28;602;-68
2022/05/24 03:42:21;;;;;;;;;;;;;;;18.62;64.19;99781.75;1051927;28;733;-67
2022/05/24 03:43:12;;;;;;;;;;;;;;;18.62;64.75;99773.66;1051445;28;681;-68
2022/05/24 03:44:02;;;;;;;;;;;;;;;18.62;65.06;99776.38;1052281;28;748;-68
2022/05/24 03:44:53;;;;;;;;;;;;;;;18.62;64.13;99777.22;1051883;28;1227;-67
2022/05/24 03:45:43;;;;;;;;;;;;;;;18.62;65.07;99781.75;1053297;28;1909;-67
2022/05/24 03:46:33;;;;;;;;;;;;;;;18.62;63.93;99781.75;1053022;28;618;-70
2022/05/24 03:47:24;;;;;;;;;;;;;;;18.61;64.35;99780.09;1052154;28;741;-69
2022/05/24 03:48:14;;;;;;;;;;;;;;;18.61;63.89;99780.09;1052289;28;674;-68
2022/05/24 03:49:05;;;;;;;;;;;;;;;18.60;64.73;99792.72;1052514;28;637;-68
2022/05/24 03:49:55;;;;;;;;;;;;;;;18.60;64.60;99786.50;1052708;28;677;-67
2022/05/24 03:50:45;;;;;;;;;;;;;;;18.60;64.29;99789.19;1052971;28;717;-66
2022/05/24 03:51:36;;;;;;;;;;;;;;;18.58;64.67;99792.03;1052786;28;599;-66
2022/05/24 03:52:26;;;;;;;;;;;;;;;18.60;64.95;99789.19;1053370;28;680;-67
2022/05/24 03:53:17;;;;;;;;;;;;;;;18.59;64.99;99793.75;1052617;28;666;-67
2022/05/24 03:54:07;;;;;;;;;;;;;;;18.59;64.43;99788.34;1052692;28;606;-67
2022/05/24 03:54:58;;;;;;;;;;;;;;;18.57;64.97;99793.03;1052806;28;701;-67
2022/05/24 03:55:48;;;;;;;;;;;;;;;18.59;64.71;99784.81;1056102;28;1557;-68
2022/05/24 03:56:38;;;;;;;;;;;;;;;18.59;64.14;99787.50;1056622;28;769;-69
2022/05/24 03:58:38;;;;;;;;;;;;;;;18.59;64.25;99793.75;1056401;28;610;-68
2022/05/24 03:59:29;;;;;;;;;;;;;;;18.57;64.81;99793.03;1056502;28;641;-69
2022/05/24 04:00:19;;;;;;;;;;;;;;;18.58;64.65;99801.97;1056227;28;606;-69
2022/05/24 04:01:10;;;;;;;;;;;;;;;18.59;64.84;99801.84;1056509;28;618;-68
2022/05/24 04:02:01;;;;;;;;;;;;;;;18.58;64.22;99802.81;1055607;28;762;-69
2022/05/24 04:02:51;;;;;;;;;;;;;;;18.59;65.05;99806.41;1056547;28;685;-69
2022/05/24 04:03:42;;;;;;;;;;;;;;;18.57;64.08;99803.84;1056787;28;621;-70
2022/05/24 04:04:32;;;;;;;;;;;;;;;18.58;64.15;99802.81;1056294;28;634;-68
2022/05/24 04:05:23;;;;;;;;;;;;;;;18.57;64.46;99805.69;1056509;28;941;-68
2022/05/24 04:06:14;;;;;;;;;;;;;;;18.58;64.54;99804.69;1056173;28;693;-68
2022/05/24 04:07:04;;;;;;;;;;;;;;;18.57;64.64;99816.50;1055854;28;681;-66
2022/05/24 04:07:55;;;;;;;;;;;;;;;18.57;64.25;99809.25;1056062;28;598;-69
2022/05/24 04:08:45;;;;;;;;;;;;;;;18.58;64.34;99812.78;1056449;28;668;-68
2022/05/24 04:09:35;;;;;;;;;;;;;;;18.57;64.35;99808.41;1056501;28;629;-67
2022/05/24 04:10:26;;;;;;;;;;;;;;;18.58;64.61;99816.31;1056092;28;731;-67
2022/05/24 04:11:16;;;;;;;;;;;;;;;18.57;63.86;99811.09;1056354;28;680;-67
2022/05/24 04:12:08;;;;;;;;;;;;;;;18.57;64.14;99811.94;1056189;28;646;-67
2022/05/24 04:12:58;;;;;;;;;;;;;;;18.57;64.83;99814.63;1055650;28;625;-66
2022/05/24 04:13:49;;;;;;;;;;;;;;;18.57;64.31;99816.50;1054012;28;644;-66
2022/05/24 04:14:39;;;;;;;;;;;;;;;18.57;64.90;99811.09;1051983;28;626;-68
2022/05/24 04:15:29;;;;;;;;;;;;;;;18.57;64.94;99820.03;1055512;28;680;-67
2022/05/24 04:16:20;;;;;;;;;;;;;;;18.56;64.08;99812.94;1056428;28;618;-66
2022/05/24 04:17:10;;;;;;;;;;;;;;;18.56;65.10;99804.00;1052849;28;731;-67
2022/05/24 04:18:01;;;;;;;;;;;;;;;18.56;63.89;99814.81;1052257;28;653;-67
2022/05/24 04:18:51;;;;;;;;;;;;;;;18.54;64.55;99806.88;1051910;28;668;-67
2022/05/24 04:19:41;;;;;;;;;;;;;;;18.54;64.21;99808.75;1053261;28;660;-67
2022/05/24 04:20:32;;;;;;;;;;;;;;;18.54;64.72;99806.88;1051885;28;694;-67
2022/05/24 04:21:22;;;;;;;;;;;;;;;18.55;64.68;99802.34;1056010;28;637;-67
2022/05/24 04:22:13;;;;;;;;;;;;;;;18.54;64.37;99800.66;1053028;28;661;-67
2022/05/24 04:23:03;;;;;;;;;;;;;;;18.54;65.18;99800.66;1048225;28;656;-66
2022/05/24 04:23:53;;;;;;;;;;;;;;;18.53;64.28;99802.50;1053435;28;1073;-66
2022/05/24 04:24:44;;;;;;;;;;;;;;;18.53;64.39;99807.06;1052581;28;629;-67
2022/05/24 04:25:35;;;;;;;;;;;;;;;18.54;64.85;99811.44;1052076;28;1893;-66
2022/05/24 04:26:26;;;;;;;;;;;;;;;18.53;64.86;99809.75;1056117;28;744;-67
2022/05/24 04:27:16;;;;;;;;;;;;;;;18.54;64.85;99806.03;1056368;28;665;-67
2022/05/24 04:28:07;;;;;;;;;;;;;;;18.53;64.29;99807.06;1053376;28;700;-67
2022/05/24 04:28:57;;;;;;;;;;;;;;;18.54;64.20;99811.44;1051938;28;689;-68
2022/05/24 04:29:51;;;;;;;;;;;;;;;18.53;64.47;99813.28;1051540;28;681;-67
2022/05/24 04:30:42;;;;;;;;;;;;;;;18.53;64.74;99817.84;1051888;28;645;-67
2022/05/24 04:31:32;;;;;;;;;;;;;;;18.54;64.62;99822.22;1057084;28;649;-67
2022/05/24 04:32:23;;;;;;;;;;;;;;;18.55;64.79;99823.91;1056663;28;708;-66
2022/05/24 04:33:13;;;;;;;;;;;;;;;18.54;64.81;99817.69;1052613;28;723;-66
2022/05/24 04:34:03;;;;;;;;;;;;;;;18.55;63.90;99816.66;1052191;28;677;-67
2022/05/24 04:34:54;;;;;;;;;;;;;;;18.54;64.42;99816.84;1053160;28;704;-67
2022/05/24 04:35:44;;;;;;;;;;;;;;;18.54;64.41;99817.69;1052516;28;716;-72
2022/05/24 04:36:35;;;;;;;;;;;;;;;18.53;64.66;99821.41;1053322;28;638;-71
2022/05/24 04:37:25;;;;;;;;;;;;;;;18.53;64.33;99816.00;1052903;28;732;-69
2022/05/24 04:38:15;;;;;;;;;;;;;;;18.52;64.47;99811.63;1055358;28;1225;-66
2022/05/24 04:39:06;;;;;;;;;;;;;;;18.51;64.23;99807.22;1056002;28;1172;-67
2022/05/24 04:39:56;;;;;;;;;;;;;;;18.52;64.34;99808.06;1056171;28;1065;-67
2022/05/24 04:43:05;;;;;;;;;;;;;;;18.52;64.19;99814.31;1057094;28;1395;-65
2022/05/24 04:43:55;;;;;;;;;;;;;;;18.53;64.06;99809.75;1055310;28;1153;-66
2022/05/24 04:44:46;;;;;;;;;;;;;;;18.54;64.63;99814.97;1056587;28;1363;-66
2022/05/24 04:45:36;;;;;;;;;;;;;;;18.53;64.62;99823.25;1054795;28;1905;-68